createdAt,value
2018-07-31T00:00:46.015Z,4.70
2018-07-31T00:01:46.005Z,4.50
2018-07-31T00:02:46.002Z,4.70
2018-07-31T00:03:45.980Z,4.70
2018-07-31T00:04:46.038Z,4.60
2018-07-31T00:05:45.961Z,4.40
2018-07-31T00:06:45.950Z,4.60
2018-07-31T00:07:45.941Z,4.60
2018-07-31T00:08:45.930Z,4.90
2018-07-31T00:09:45.981Z,4.50
2018-07-31T00:10:45.912Z,4.40
2018-07-31T00:11:45.895Z,4.90
2018-07-31T00:12:45.887Z,4.70
2018-07-31T00:13:45.876Z,4.60
2018-07-31T00:14:45.931Z,4.60
2018-07-31T00:15:45.854Z,4.60
2018-07-31T00:16:46.486Z,5.00
2018-07-31T00:17:45.831Z,4.20
2018-07-31T00:18:45.822Z,4.70
2018-07-31T00:19:45.881Z,4.70
2018-07-31T00:20:45.798Z,4.60
2018-07-31T00:21:45.853Z,4.70
2018-07-31T00:22:45.776Z,4.80
2018-07-31T00:23:45.766Z,4.60
2018-07-31T00:24:45.755Z,4.80
2018-07-31T00:25:45.809Z,4.30
2018-07-31T00:26:45.729Z,4.90
2018-07-31T00:27:45.721Z,4.40
2018-07-31T00:28:45.710Z,4.70
2018-07-31T00:29:45.698Z,4.90
2018-07-31T00:30:45.751Z,4.60
2018-07-31T00:31:45.674Z,4.60
2018-07-31T00:32:45.663Z,4.50
2018-07-31T00:33:45.662Z,4.60
2018-07-31T00:34:45.644Z,4.90
2018-07-31T00:35:45.696Z,5.10
2018-07-31T00:36:45.645Z,4.70
2018-07-31T00:37:46.489Z,4.60
2018-07-31T00:38:45.602Z,4.90
2018-07-31T00:39:45.599Z,4.70
2018-07-31T00:40:45.641Z,4.50
2018-07-31T00:41:45.566Z,4.90
2018-07-31T00:42:45.555Z,5.00
2018-07-31T00:43:45.544Z,5.00
2018-07-31T00:44:45.535Z,4.60
2018-07-31T00:45:45.594Z,4.80
2018-07-31T00:46:45.513Z,4.90
2018-07-31T00:47:45.505Z,4.60
2018-07-31T00:48:45.494Z,4.70
2018-07-31T00:49:45.480Z,4.70
2018-07-31T00:50:45.559Z,4.70
2018-07-31T00:51:45.461Z,4.70
2018-07-31T00:52:45.450Z,5.00
2018-07-31T00:53:45.434Z,4.80
2018-07-31T00:54:45.425Z,4.60
2018-07-31T00:55:45.477Z,4.50
2018-07-31T00:56:45.404Z,4.90
2018-07-31T00:57:45.397Z,4.20
2018-07-31T00:58:45.984Z,4.30
2018-07-31T00:59:45.372Z,4.80
2018-07-31T01:00:45.422Z,4.70
2018-07-31T01:01:45.350Z,4.50
2018-07-31T01:02:45.339Z,4.50
2018-07-31T01:03:45.332Z,4.90
2018-07-31T01:04:45.318Z,4.80
2018-07-31T01:05:45.369Z,4.70
2018-07-31T01:06:45.337Z,4.90
2018-07-31T01:07:45.283Z,4.80
2018-07-31T01:08:45.275Z,4.60
2018-07-31T01:09:45.271Z,4.60
2018-07-31T01:10:45.317Z,4.70
2018-07-31T01:11:45.244Z,4.50
2018-07-31T01:12:45.231Z,4.60
2018-07-31T01:13:45.223Z,4.70
2018-07-31T01:14:45.209Z,4.60
2018-07-31T01:15:45.260Z,4.60
2018-07-31T01:16:45.191Z,4.90
2018-07-31T01:17:45.178Z,4.60
2018-07-31T01:18:45.168Z,4.50
2018-07-31T01:19:45.990Z,4.60
2018-07-31T01:20:45.206Z,4.70
2018-07-31T01:21:45.134Z,4.60
2018-07-31T01:22:45.121Z,4.80
2018-07-31T01:23:45.110Z,4.50
2018-07-31T01:24:45.099Z,4.80
2018-07-31T01:25:45.559Z,5.20
2018-07-31T01:26:45.079Z,4.50
2018-07-31T01:27:45.068Z,4.50
2018-07-31T01:28:45.057Z,4.50
2018-07-31T01:29:45.046Z,4.70
2018-07-31T01:30:45.099Z,4.50
2018-07-31T01:31:45.027Z,4.40
2018-07-31T01:32:45.015Z,4.80
2018-07-31T01:33:45.001Z,4.50
2018-07-31T01:34:44.994Z,4.60
2018-07-31T01:35:45.048Z,4.40
2018-07-31T01:36:44.971Z,4.50
2018-07-31T01:37:44.966Z,4.40
2018-07-31T01:38:44.951Z,4.20
2018-07-31T01:39:44.940Z,4.80
2018-07-31T01:40:45.060Z,4.30
2018-07-31T01:41:44.918Z,4.20
2018-07-31T01:42:44.910Z,4.60
2018-07-31T01:43:44.896Z,4.20
2018-07-31T01:44:44.887Z,4.30
2018-07-31T01:45:44.948Z,4.60
2018-07-31T01:46:44.868Z,4.40
2018-07-31T01:47:44.857Z,4.60
2018-07-31T01:48:44.848Z,4.30
2018-07-31T01:49:44.832Z,4.80
2018-07-31T01:50:44.885Z,4.60
2018-07-31T01:51:44.813Z,4.30
2018-07-31T01:52:44.804Z,4.40
2018-07-31T01:53:45.493Z,4.60
2018-07-31T01:54:44.780Z,4.30
2018-07-31T01:55:44.833Z,4.20
2018-07-31T01:56:44.760Z,4.30
2018-07-31T01:57:45.489Z,4.30
2018-07-31T01:58:44.736Z,4.70
2018-07-31T01:59:44.817Z,4.30
2018-07-31T02:00:44.793Z,4.00
2018-07-31T02:01:45.484Z,4.50
2018-07-31T02:02:44.697Z,4.10
2018-07-31T02:03:44.688Z,4.20
2018-07-31T02:04:44.750Z,4.40
2018-07-31T02:05:44.666Z,4.80
2018-07-31T02:06:44.716Z,4.50
2018-07-31T02:07:44.651Z,4.80
2018-07-31T02:08:44.633Z,4.40
2018-07-31T02:09:44.622Z,3.90
2018-07-31T02:10:44.616Z,4.30
2018-07-31T02:11:44.671Z,4.70
2018-07-31T02:12:44.594Z,4.40
2018-07-31T02:13:44.589Z,4.20
2018-07-31T02:14:44.569Z,4.30
2018-07-31T02:15:44.558Z,4.30
2018-07-31T02:16:44.630Z,4.10
2018-07-31T02:17:44.537Z,4.10
2018-07-31T02:18:44.525Z,4.20
2018-07-31T02:19:44.514Z,4.00
2018-07-31T02:20:44.503Z,4.70
2018-07-31T02:21:44.561Z,4.30
2018-07-31T02:22:44.985Z,4.40
2018-07-31T02:23:44.478Z,4.40
2018-07-31T02:24:44.467Z,4.10
2018-07-31T02:25:44.456Z,4.30
2018-07-31T02:26:44.506Z,4.10
2018-07-31T02:27:44.436Z,4.20
2018-07-31T02:28:44.484Z,4.20
2018-07-31T02:29:44.415Z,4.30
2018-07-31T02:30:44.401Z,4.70
2018-07-31T02:31:44.456Z,4.20
2018-07-31T02:32:44.379Z,4.40
2018-07-31T02:33:44.370Z,4.50
2018-07-31T02:34:44.364Z,4.60
2018-07-31T02:35:44.350Z,4.90
2018-07-31T02:36:44.401Z,4.50
2018-07-31T02:37:44.329Z,4.50
2018-07-31T02:38:44.317Z,5.00
2018-07-31T02:39:44.306Z,4.50
2018-07-31T02:40:44.300Z,4.40
2018-07-31T02:41:44.354Z,5.10
2018-07-31T02:42:44.275Z,5.20
2018-07-31T02:43:44.991Z,5.10
2018-07-31T02:44:44.253Z,5.20
2018-07-31T02:45:44.243Z,5.40
2018-07-31T02:46:44.298Z,5.50
2018-07-31T02:47:44.224Z,5.20
2018-07-31T02:48:44.209Z,5.70
2018-07-31T02:49:44.201Z,5.10
2018-07-31T02:50:44.190Z,5.00
2018-07-31T02:51:44.243Z,5.10
2018-07-31T02:52:44.176Z,4.70
2018-07-31T02:53:44.157Z,5.30
2018-07-31T02:54:44.149Z,5.10
2018-07-31T02:55:44.138Z,5.40
2018-07-31T02:56:44.193Z,5.20
2018-07-31T02:57:44.114Z,5.00
2018-07-31T02:58:44.108Z,4.90
2018-07-31T02:59:44.099Z,5.20
2018-07-31T03:00:44.084Z,5.10
2018-07-31T03:01:44.137Z,4.90
2018-07-31T03:02:44.065Z,4.60
2018-07-31T03:03:44.051Z,4.60
2018-07-31T03:04:44.983Z,4.80
2018-07-31T03:05:44.032Z,4.60
2018-07-31T03:06:51.608Z,4.40
2018-07-31T03:07:52.136Z,4.90
2018-07-31T03:08:43.999Z,4.50
2018-07-31T03:09:52.052Z,4.40
2018-07-31T03:10:43.985Z,4.70
2018-07-31T03:11:44.029Z,4.40
2018-07-31T03:12:43.955Z,4.50
2018-07-31T03:13:43.946Z,4.20
2018-07-31T03:14:43.936Z,4.40
2018-07-31T03:15:43.922Z,4.40
2018-07-31T03:16:43.975Z,4.40
2018-07-31T03:17:51.998Z,4.40
2018-07-31T03:18:43.893Z,4.50
2018-07-31T03:19:43.888Z,4.60
2018-07-31T03:20:43.869Z,4.50
2018-07-31T03:21:43.927Z,4.10
2018-07-31T03:22:43.846Z,4.00
2018-07-31T03:23:43.839Z,4.20
2018-07-31T03:24:43.825Z,4.10
2018-07-31T03:25:43.818Z,4.40
2018-07-31T03:26:44.190Z,3.90
2018-07-31T03:27:43.794Z,3.90
2018-07-31T03:28:43.783Z,4.30
2018-07-31T03:29:43.778Z,3.90
2018-07-31T03:30:43.761Z,4.10
2018-07-31T03:31:43.820Z,4.60
2018-07-31T03:32:43.745Z,4.10
2018-07-31T03:33:43.734Z,4.10
2018-07-31T03:34:43.735Z,4.40
2018-07-31T03:35:43.712Z,4.50
2018-07-31T03:36:43.761Z,4.60
2018-07-31T03:37:43.687Z,4.60
2018-07-31T03:38:44.613Z,4.10
2018-07-31T03:39:43.672Z,4.50
2018-07-31T03:40:43.656Z,4.40
2018-07-31T03:41:43.711Z,4.40
2018-07-31T03:42:43.633Z,3.80
2018-07-31T03:43:43.622Z,4.50
2018-07-31T03:44:43.619Z,4.40
2018-07-31T03:45:43.601Z,4.60
2018-07-31T03:46:43.655Z,4.80
2018-07-31T03:47:43.584Z,4.00
2018-07-31T03:48:43.573Z,4.30
2018-07-31T03:49:43.567Z,4.70
2018-07-31T03:50:43.550Z,4.20
2018-07-31T03:51:43.611Z,4.10
2018-07-31T03:52:43.525Z,4.50
2018-07-31T03:53:43.578Z,4.40
2018-07-31T03:54:43.504Z,4.20
2018-07-31T03:55:43.495Z,4.40
2018-07-31T03:56:43.482Z,4.60
2018-07-31T03:57:43.549Z,4.90
2018-07-31T03:58:43.459Z,4.60
2018-07-31T03:59:44.108Z,4.40
2018-07-31T04:00:43.440Z,5.00
2018-07-31T04:01:43.431Z,4.70
2018-07-31T04:02:43.481Z,4.60
2018-07-31T04:03:43.411Z,5.00
2018-07-31T04:04:43.440Z,4.60
2018-07-31T04:05:43.387Z,4.20
2018-07-31T04:06:43.388Z,4.80
2018-07-31T04:07:43.436Z,4.80
2018-07-31T04:08:43.359Z,4.60
2018-07-31T04:09:43.346Z,4.10
2018-07-31T04:10:43.332Z,4.60
2018-07-31T04:11:43.326Z,4.70
2018-07-31T04:12:43.377Z,5.00
2018-07-31T04:13:43.301Z,4.60
2018-07-31T04:14:43.294Z,4.70
2018-07-31T04:15:43.283Z,4.30
2018-07-31T04:16:43.289Z,4.20
2018-07-31T04:17:43.334Z,4.40
2018-07-31T04:18:43.249Z,5.00
2018-07-31T04:19:43.238Z,4.70
2018-07-31T04:20:44.109Z,5.00
2018-07-31T04:21:43.215Z,4.80
2018-07-31T04:22:43.268Z,4.80
2018-07-31T04:23:43.196Z,4.50
2018-07-31T04:24:43.191Z,4.80
2018-07-31T04:25:43.174Z,4.80
2018-07-31T04:26:43.161Z,4.70
2018-07-31T04:27:43.213Z,4.90
2018-07-31T04:28:43.138Z,4.80
2018-07-31T04:29:43.130Z,5.20
2018-07-31T04:30:43.124Z,5.00
2018-07-31T04:31:43.114Z,4.80
2018-07-31T04:32:43.163Z,4.80
2018-07-31T04:33:43.094Z,4.70
2018-07-31T04:34:43.078Z,4.80
2018-07-31T04:35:43.073Z,4.50
2018-07-31T04:36:43.055Z,4.80
2018-07-31T04:37:43.109Z,4.70
2018-07-31T04:38:43.033Z,4.60
2018-07-31T04:39:43.020Z,4.80
2018-07-31T04:40:43.009Z,5.10
2018-07-31T04:41:43.609Z,4.70
2018-07-31T04:42:43.055Z,4.90
2018-07-31T04:43:42.978Z,5.00
2018-07-31T04:44:42.972Z,4.80
2018-07-31T04:45:42.959Z,4.60
2018-07-31T04:46:42.947Z,5.00
2018-07-31T04:47:43.003Z,4.80
2018-07-31T04:48:42.931Z,4.40
2018-07-31T04:49:42.914Z,4.70
2018-07-31T04:50:42.911Z,5.10
2018-07-31T04:51:42.898Z,5.10
2018-07-31T04:52:42.955Z,4.90
2018-07-31T04:53:42.872Z,4.50
2018-07-31T04:54:42.863Z,5.10
2018-07-31T04:55:42.850Z,5.10
2018-07-31T04:56:42.893Z,5.30
2018-07-31T04:57:42.895Z,5.00
2018-07-31T04:58:42.818Z,4.80
2018-07-31T04:59:42.806Z,5.00
2018-07-31T05:00:42.798Z,5.20
2018-07-31T05:01:42.787Z,5.20
2018-07-31T05:02:43.181Z,5.10
2018-07-31T05:03:42.770Z,5.10
2018-07-31T05:04:42.756Z,5.70
2018-07-31T05:05:42.745Z,4.90
2018-07-31T05:06:42.737Z,5.40
2018-07-31T05:07:43.181Z,5.70
2018-07-31T05:08:42.712Z,5.50
2018-07-31T05:09:42.704Z,5.10
2018-07-31T05:10:42.692Z,5.10
2018-07-31T05:11:42.702Z,5.30
2018-07-31T05:12:42.736Z,5.40
2018-07-31T05:13:42.659Z,5.80
2018-07-31T05:14:42.648Z,5.60
2018-07-31T05:15:42.638Z,5.40
2018-07-31T05:16:42.636Z,5.70
2018-07-31T05:17:42.682Z,5.40
2018-07-31T05:18:42.613Z,5.20
2018-07-31T05:19:42.675Z,5.10
2018-07-31T05:20:42.656Z,5.10
2018-07-31T05:21:42.656Z,5.40
2018-07-31T05:22:42.690Z,5.60
2018-07-31T05:23:43.116Z,5.40
2018-07-31T05:24:43.145Z,5.20
2018-07-31T05:25:42.543Z,4.50
2018-07-31T05:26:42.529Z,5.10
2018-07-31T05:32:32.137Z,5.00
2018-07-31T05:33:31.558Z,5.40
2018-07-31T05:34:31.507Z,5.50
2018-07-31T05:35:31.372Z,5.10
2018-07-31T05:36:32.529Z,5.30
2018-07-31T05:37:31.540Z,5.10
2018-07-31T05:38:31.399Z,5.20
2018-07-31T05:39:31.570Z,5.20
2018-07-31T05:40:39.939Z,5.20
2018-07-31T05:54:33.829Z,6.00
2018-07-31T05:55:33.490Z,5.70
2018-07-31T05:56:33.473Z,4.80
2018-07-31T05:57:33.539Z,5.00
2018-07-31T05:58:33.555Z,5.30
2018-07-31T05:59:33.451Z,5.50
2018-07-31T06:00:34.079Z,5.40
2018-07-31T06:01:33.421Z,5.00
2018-07-31T06:02:33.415Z,5.00
2018-07-31T06:03:33.504Z,4.80
2018-07-31T06:04:33.388Z,5.30
2018-07-31T06:05:33.386Z,5.30
2018-07-31T06:06:33.368Z,5.10
2018-07-31T06:07:33.379Z,5.70
2018-07-31T06:08:33.408Z,5.60
2018-07-31T06:09:33.393Z,5.20
2018-07-31T06:10:33.327Z,5.40
2018-07-31T06:11:33.331Z,5.60
2018-07-31T06:12:33.302Z,5.80
2018-07-31T06:13:33.381Z,5.40
2018-07-31T06:14:33.286Z,5.90
2018-07-31T06:15:34.093Z,5.10
2018-07-31T06:16:33.268Z,5.40
2018-07-31T06:17:33.276Z,5.80
2018-07-31T06:18:33.323Z,6.70
2018-07-31T06:19:33.229Z,6.90
2018-07-31T06:20:33.232Z,6.50
2018-07-31T06:21:33.218Z,6.60
2018-07-31T06:24:04.361Z,5.20
2018-07-31T06:25:04.307Z,5.90
2018-07-31T06:26:04.256Z,6.50
2018-07-31T06:27:04.223Z,5.70
2018-07-31T06:28:11.827Z,6.00
2018-07-31T06:29:04.115Z,6.20
2018-07-31T06:30:04.207Z,6.20
2018-07-31T06:31:04.079Z,6.70
2018-07-31T06:32:04.140Z,5.80
2018-07-31T06:33:04.041Z,7.60
2018-07-31T06:34:04.062Z,6.40
2018-07-31T06:35:04.745Z,6.20
2018-07-31T06:36:03.980Z,7.20
2018-07-31T06:37:03.968Z,7.80
2018-07-31T06:38:03.965Z,6.40
2018-07-31T06:39:04.015Z,7.50
2018-07-31T06:40:03.949Z,8.40
2018-07-31T06:41:03.929Z,8.30
2018-07-31T06:42:03.918Z,7.80
2018-07-31T06:43:03.910Z,7.70
2018-07-31T06:44:03.965Z,7.70
2018-07-31T06:45:03.888Z,6.10
2018-07-31T06:46:03.874Z,7.60
2018-07-31T06:47:03.968Z,7.30
2018-07-31T06:48:03.855Z,6.10
2018-07-31T06:49:04.317Z,6.30
2018-07-31T06:50:03.838Z,6.10
2018-07-31T06:51:03.856Z,5.30
2018-07-31T06:52:03.813Z,6.60
2018-07-31T06:53:03.802Z,7.10
2018-07-31T06:54:03.864Z,6.50
2018-07-31T06:55:03.782Z,6.30
2018-07-31T06:56:03.774Z,5.80
2018-07-31T06:57:03.789Z,7.00
2018-07-31T06:58:03.754Z,5.90
2018-07-31T06:59:03.812Z,6.00
2018-07-31T07:00:03.815Z,5.70
2018-07-31T07:01:11.591Z,5.90
2018-07-31T07:02:13.326Z,5.40
2018-07-31T07:04:10.523Z,5.90
2018-07-31T07:05:18.641Z,6.00
2018-07-31T07:06:10.423Z,5.60
2018-07-31T07:07:18.169Z,6.80
2018-07-31T07:08:10.359Z,6.10
2018-07-31T07:11:43.321Z,6.90
2018-07-31T07:15:02.936Z,5.90
2018-07-31T07:17:11.929Z,6.60
2018-07-31T07:18:11.836Z,6.50
2018-07-31T07:19:11.854Z,6.90
2018-07-31T07:20:11.739Z,5.90
2018-07-31T07:21:11.718Z,6.00
2018-07-31T07:22:11.693Z,6.10
2018-07-31T07:23:12.583Z,5.60
2018-07-31T07:24:11.758Z,6.80
2018-07-31T07:25:11.674Z,7.40
2018-07-31T07:26:11.662Z,7.50
2018-07-31T07:27:11.649Z,6.60
2018-07-31T07:28:11.641Z,7.20
2018-07-31T07:29:11.700Z,7.70
2018-07-31T07:30:11.613Z,6.40
2018-07-31T07:31:11.612Z,7.00
2018-07-31T07:32:11.601Z,6.80
2018-07-31T07:33:11.588Z,6.40
2018-07-31T07:34:11.656Z,6.70
2018-07-31T07:35:11.568Z,6.90
2018-07-31T07:36:12.464Z,7.10
2018-07-31T07:37:11.546Z,6.20
2018-07-31T07:38:12.460Z,7.00
2018-07-31T07:39:11.597Z,7.20
2018-07-31T07:40:11.528Z,6.90
2018-07-31T07:41:11.515Z,6.80
2018-07-31T07:42:11.499Z,6.60
2018-07-31T07:43:11.490Z,6.90
2018-07-31T07:44:11.550Z,6.50
2018-07-31T07:45:11.468Z,6.90
2018-07-31T07:46:11.462Z,6.90
2018-07-31T07:47:11.461Z,7.10
2018-07-31T07:48:11.440Z,7.00
2018-07-31T07:49:11.505Z,7.20
2018-07-31T07:50:11.423Z,6.60
2018-07-31T07:51:11.425Z,7.00
2018-07-31T07:52:11.398Z,6.80
2018-07-31T07:53:11.392Z,7.00
2018-07-31T07:54:11.543Z,7.00
2018-07-31T07:55:11.370Z,7.10
2018-07-31T07:56:11.362Z,7.10
2018-07-31T07:57:11.354Z,7.20
2018-07-31T07:58:11.340Z,7.10
2018-07-31T07:59:11.542Z,7.40
2018-07-31T08:00:11.324Z,6.90
2018-07-31T08:01:11.318Z,7.30
2018-07-31T08:02:11.331Z,7.40
2018-07-31T08:03:11.343Z,7.90
2018-07-31T08:04:11.305Z,7.00
2018-07-31T08:05:11.340Z,7.40
2018-07-31T08:06:11.265Z,8.00
2018-07-31T08:07:11.259Z,7.80
2018-07-31T08:08:11.250Z,8.30
2018-07-31T08:09:11.237Z,7.80
2018-07-31T08:10:11.311Z,8.60
2018-07-31T08:11:11.224Z,8.70
2018-07-31T08:12:11.259Z,8.60
2018-07-31T08:13:11.201Z,8.40
2018-07-31T08:14:11.961Z,8.20
2018-07-31T08:15:11.245Z,9.00
2018-07-31T08:16:11.189Z,8.90
2018-07-31T08:17:11.167Z,9.60
2018-07-31T08:18:11.164Z,9.40
2018-07-31T08:19:11.153Z,8.70
2018-07-31T08:20:14.548Z,8.30
2018-07-31T08:21:11.134Z,9.20
2018-07-31T08:22:11.126Z,9.60
2018-07-31T08:23:11.117Z,9.10
2018-07-31T08:24:11.108Z,9.40
2018-07-31T08:25:11.158Z,9.30
2018-07-31T08:26:11.089Z,9.60
2018-07-31T08:27:11.083Z,9.50
2018-07-31T08:28:11.070Z,9.60
2018-07-31T08:29:11.064Z,9.50
2018-07-31T08:30:11.117Z,10.10
2018-07-31T08:31:11.045Z,10.00
2018-07-31T08:32:11.038Z,10.30
2018-07-31T08:33:11.030Z,11.10
2018-07-31T08:34:11.022Z,10.30
2018-07-31T08:35:11.085Z,11.00
2018-07-31T08:36:11.008Z,10.60
2018-07-31T08:37:11.001Z,11.40
2018-07-31T08:38:10.988Z,10.80
2018-07-31T08:39:10.981Z,11.50
2018-07-31T08:40:11.041Z,11.40
2018-07-31T08:41:11.971Z,11.70
2018-07-31T08:42:10.957Z,11.80
2018-07-31T08:43:10.948Z,12.30
2018-07-31T08:44:10.940Z,11.80
2018-07-31T08:45:10.999Z,12.10
2018-07-31T08:46:10.926Z,12.40
2018-07-31T08:47:10.918Z,12.50
2018-07-31T08:48:10.907Z,12.40
2018-07-31T08:49:10.904Z,11.80
2018-07-31T08:50:10.957Z,12.10
2018-07-31T08:51:10.941Z,12.40
2018-07-31T08:52:10.876Z,12.40
2018-07-31T08:53:10.868Z,12.80
2018-07-31T08:54:10.859Z,11.60
2018-07-31T08:55:10.918Z,11.40
2018-07-31T08:56:10.848Z,11.20
2018-07-31T08:57:10.842Z,11.10
2018-07-31T08:58:10.828Z,11.00
2018-07-31T08:59:10.819Z,11.60
2018-07-31T09:00:10.872Z,11.10
2018-07-31T09:01:10.806Z,11.40
2018-07-31T09:02:11.454Z,11.60
2018-07-31T09:03:10.789Z,11.50
2018-07-31T09:04:10.783Z,11.70
2018-07-31T09:05:10.833Z,11.60
2018-07-31T09:06:10.765Z,11.10
2018-07-31T09:07:10.755Z,11.60
2018-07-31T09:08:10.755Z,10.80
2018-07-31T09:09:10.739Z,10.80
2018-07-31T09:10:10.791Z,10.60
2018-07-31T09:11:10.722Z,11.20
2018-07-31T09:12:10.714Z,10.80
2018-07-31T09:13:10.704Z,11.00
2018-07-31T09:14:10.699Z,11.20
2018-07-31T09:15:10.756Z,11.50
2018-07-31T09:16:10.679Z,10.90
2018-07-31T09:17:10.679Z,11.50
2018-07-31T09:18:10.666Z,11.80
2018-07-31T09:19:10.657Z,11.50
2018-07-31T09:20:10.715Z,12.00
2018-07-31T09:21:10.640Z,12.30
2018-07-31T09:22:10.637Z,12.30
2018-07-31T09:23:11.450Z,13.00
2018-07-31T09:24:10.633Z,12.90
2018-07-31T09:25:10.688Z,13.50
2018-07-31T09:26:10.603Z,12.80
2018-07-31T09:27:10.596Z,13.60
2018-07-31T09:28:10.587Z,14.70
2018-07-31T09:29:10.581Z,15.00
2018-07-31T09:30:10.641Z,16.00
2018-07-31T09:31:10.591Z,15.20
2018-07-31T09:32:10.559Z,15.70
2018-07-31T09:33:10.552Z,16.20
2018-07-31T09:34:10.544Z,16.10
2018-07-31T09:35:10.605Z,16.80
2018-07-31T09:36:10.524Z,16.60
2018-07-31T09:37:10.519Z,16.40
2018-07-31T09:38:10.555Z,16.00
2018-07-31T09:39:10.504Z,15.70
2018-07-31T09:40:10.573Z,16.10
2018-07-31T09:41:10.487Z,16.00
2018-07-31T09:42:10.482Z,16.00
2018-07-31T09:43:10.473Z,15.40
2018-07-31T09:44:17.989Z,15.80
2018-07-31T09:45:10.458Z,15.10
2018-07-31T09:46:10.513Z,14.50
2018-07-31T09:47:10.442Z,14.30
2018-07-31T09:48:10.434Z,14.40
2018-07-31T09:49:10.426Z,13.60
2018-07-31T09:50:10.418Z,13.60
2018-07-31T09:51:10.473Z,13.50
2018-07-31T09:52:10.986Z,13.30
2018-07-31T09:53:10.392Z,13.60
2018-07-31T09:54:10.389Z,14.00
2018-07-31T09:55:10.379Z,13.00
2018-07-31T09:56:10.430Z,13.30
2018-07-31T09:57:10.422Z,13.40
2018-07-31T09:58:10.358Z,13.30
2018-07-31T09:59:10.401Z,12.30
2018-07-31T10:00:10.343Z,12.40
2018-07-31T10:01:10.404Z,12.60
2018-07-31T10:02:10.337Z,12.00
2018-07-31T10:03:10.322Z,12.00
2018-07-31T10:04:10.310Z,11.60
2018-07-31T10:05:11.034Z,12.90
2018-07-31T10:06:10.362Z,12.00
2018-07-31T10:07:10.285Z,12.10
2018-07-31T10:08:10.280Z,11.70
2018-07-31T10:09:10.271Z,11.60
2018-07-31T10:10:10.268Z,11.60
2018-07-31T10:11:10.329Z,12.20
2018-07-31T10:12:10.279Z,12.30
2018-07-31T10:13:10.240Z,11.80
2018-07-31T10:14:10.234Z,11.90
2018-07-31T10:15:10.226Z,12.30
2018-07-31T10:16:10.282Z,12.10
2018-07-31T10:17:10.215Z,11.50
2018-07-31T10:18:10.263Z,11.40
2018-07-31T10:19:10.195Z,11.00
2018-07-31T10:20:10.194Z,11.50
2018-07-31T10:21:10.239Z,11.50
2018-07-31T10:22:10.173Z,11.70
2018-07-31T10:23:10.161Z,11.10
2018-07-31T10:24:10.164Z,11.10
2018-07-31T10:25:10.147Z,11.20
2018-07-31T10:26:10.554Z,11.40
2018-07-31T10:27:10.128Z,11.00
2018-07-31T10:28:10.119Z,10.40
2018-07-31T10:29:10.113Z,10.60
2018-07-31T10:30:10.105Z,10.60
2018-07-31T10:31:10.155Z,10.00
2018-07-31T10:32:10.086Z,9.90
2018-07-31T10:33:10.082Z,9.50
2018-07-31T10:34:10.068Z,10.00
2018-07-31T10:35:10.057Z,8.90
2018-07-31T10:36:10.113Z,9.00
2018-07-31T10:37:10.049Z,8.60
2018-07-31T10:38:10.033Z,8.70
2018-07-31T10:39:10.027Z,8.40
2018-07-31T10:40:10.019Z,8.80
2018-07-31T10:41:10.068Z,9.20
2018-07-31T10:42:10.001Z,8.90
2018-07-31T10:43:09.990Z,8.20
2018-07-31T10:44:09.985Z,9.40
2018-07-31T10:45:09.973Z,8.50
2018-07-31T10:46:10.029Z,8.70
2018-07-31T10:47:10.478Z,9.00
2018-07-31T10:48:09.946Z,8.90
2018-07-31T10:49:09.943Z,8.40
2018-07-31T10:50:09.934Z,8.10
2018-07-31T10:51:10.072Z,8.30
2018-07-31T10:52:09.918Z,8.50
2018-07-31T10:53:09.916Z,8.30
2018-07-31T10:54:09.895Z,8.10
2018-07-31T10:55:17.999Z,7.70
2018-07-31T10:56:18.133Z,8.10
2018-07-31T10:57:18.014Z,7.90
2018-07-31T10:58:18.515Z,7.70
2018-07-31T10:59:17.935Z,7.70
2018-07-31T11:00:09.885Z,7.80
2018-07-31T11:01:09.894Z,7.50
2018-07-31T11:02:09.820Z,7.40
2018-07-31T11:03:17.345Z,7.60
2018-07-31T11:04:17.920Z,7.50
2018-07-31T11:05:18.394Z,7.30
2018-07-31T11:06:17.412Z,7.20
2018-07-31T11:07:17.298Z,7.50
2018-07-31T11:08:09.774Z,8.40
2018-07-31T11:09:09.758Z,8.60
2018-07-31T11:10:09.751Z,8.20
2018-07-31T11:11:09.800Z,7.80
2018-07-31T11:12:09.730Z,7.70
2018-07-31T11:13:09.884Z,8.60
2018-07-31T11:14:09.721Z,8.10
2018-07-31T11:15:09.703Z,7.90
2018-07-31T11:16:09.755Z,7.40
2018-07-31T11:17:10.330Z,7.90
2018-07-31T11:18:09.677Z,7.60
2018-07-31T11:19:09.668Z,7.80
2018-07-31T11:20:09.658Z,7.80
2018-07-31T11:21:09.828Z,7.60
2018-07-31T11:22:09.641Z,7.30
2018-07-31T11:23:09.701Z,7.30
2018-07-31T11:24:09.624Z,7.20
2018-07-31T11:25:09.614Z,7.00
2018-07-31T11:26:09.602Z,7.30
2018-07-31T11:27:09.655Z,6.90
2018-07-31T11:28:10.325Z,7.10
2018-07-31T11:29:09.577Z,6.70
2018-07-31T11:30:09.566Z,6.60
2018-07-31T11:31:09.557Z,6.20
2018-07-31T11:32:09.608Z,6.40
2018-07-31T11:33:09.556Z,6.20
2018-07-31T11:34:09.531Z,6.00
2018-07-31T11:35:09.519Z,6.00
2018-07-31T11:36:09.508Z,6.20
2018-07-31T11:37:09.557Z,6.10
2018-07-31T11:38:09.488Z,6.40
2018-07-31T11:39:09.480Z,5.80
2018-07-31T11:40:09.471Z,5.90
2018-07-31T11:41:09.460Z,6.00
2018-07-31T11:42:09.510Z,5.90
2018-07-31T11:43:09.443Z,5.90
2018-07-31T11:44:09.428Z,5.80
2018-07-31T11:45:09.424Z,6.40
2018-07-31T11:46:09.415Z,6.40
2018-07-31T11:47:09.462Z,7.20
2018-07-31T11:48:09.390Z,5.90
2018-07-31T11:49:10.329Z,5.80
2018-07-31T11:50:09.431Z,6.50
2018-07-31T11:51:09.365Z,6.70
2018-07-31T11:52:09.420Z,7.00
2018-07-31T11:53:09.345Z,7.00
2018-07-31T11:54:09.337Z,7.10
2018-07-31T11:55:09.329Z,7.20
2018-07-31T11:56:09.339Z,7.90
2018-07-31T11:57:09.378Z,7.70
2018-07-31T11:58:09.305Z,8.60
2018-07-31T11:59:09.297Z,8.50
2018-07-31T12:00:09.290Z,8.50
2018-07-31T12:01:09.282Z,8.10
2018-07-31T12:02:09.341Z,8.20
2018-07-31T12:03:09.262Z,7.90
2018-07-31T12:04:09.266Z,7.90
2018-07-31T12:05:09.243Z,7.50
2018-07-31T12:06:09.234Z,7.50
2018-07-31T12:07:09.286Z,7.80
2018-07-31T12:08:09.219Z,7.30
2018-07-31T12:09:09.208Z,7.00
2018-07-31T12:10:09.826Z,6.90
2018-07-31T12:11:09.189Z,6.70
2018-07-31T12:12:09.239Z,6.50
2018-07-31T12:13:09.170Z,6.40
2018-07-31T12:14:09.161Z,6.60
2018-07-31T12:15:09.156Z,6.30
2018-07-31T12:16:09.142Z,6.30
2018-07-31T12:17:09.192Z,6.30
2018-07-31T12:18:09.131Z,6.20
2018-07-31T12:19:09.164Z,6.10
2018-07-31T12:20:09.103Z,5.80
2018-07-31T12:21:09.094Z,6.20
2018-07-31T12:22:09.144Z,6.00
2018-07-31T12:23:09.075Z,5.70
2018-07-31T12:24:09.066Z,5.60
2018-07-31T12:25:09.056Z,5.90
2018-07-31T12:26:09.050Z,5.80
2018-07-31T12:27:09.113Z,6.30
2018-07-31T12:28:09.028Z,6.00
2018-07-31T12:29:09.024Z,6.10
2018-07-31T12:30:09.008Z,6.40
2018-07-31T12:31:09.832Z,6.70
2018-07-31T12:32:09.055Z,7.00
2018-07-31T12:33:09.054Z,7.50
2018-07-31T12:34:08.975Z,7.10
2018-07-31T12:35:08.970Z,7.80
2018-07-31T12:36:08.958Z,7.50
2018-07-31T12:37:09.010Z,8.20
2018-07-31T12:38:08.963Z,8.10
2018-07-31T12:39:08.933Z,8.80
2018-07-31T12:40:08.926Z,9.30
2018-07-31T12:41:08.921Z,9.30
2018-07-31T12:42:08.982Z,9.20
2018-07-31T12:43:08.902Z,9.30
2018-07-31T12:44:08.965Z,9.70
2018-07-31T12:45:08.887Z,9.70
2018-07-31T12:46:08.876Z,9.70
2018-07-31T12:47:08.944Z,9.80
2018-07-31T12:48:08.860Z,10.00
2018-07-31T12:49:08.849Z,10.20
2018-07-31T12:50:08.886Z,10.90
2018-07-31T12:51:08.834Z,10.10
2018-07-31T12:52:09.401Z,10.60
2018-07-31T12:53:08.820Z,11.10
2018-07-31T12:54:08.814Z,10.70
2018-07-31T12:55:08.805Z,11.40
2018-07-31T12:56:08.798Z,11.70
2018-07-31T12:57:08.847Z,11.50
2018-07-31T12:58:08.780Z,11.20
2018-07-31T12:59:08.775Z,11.10
2018-07-31T13:00:08.766Z,11.60
2018-07-31T13:01:08.755Z,11.90
2018-07-31T13:02:08.824Z,11.00
2018-07-31T13:03:08.743Z,10.90
2018-07-31T13:04:08.732Z,10.20
2018-07-31T13:05:08.727Z,10.50
2018-07-31T13:06:08.719Z,10.50
2018-07-31T13:07:08.710Z,10.80
2018-07-31T13:08:08.792Z,11.00
2018-07-31T13:09:08.696Z,11.20
2018-07-31T13:10:08.685Z,11.10
2018-07-31T13:11:08.684Z,12.10
2018-07-31T13:12:08.676Z,11.70
2018-07-31T13:13:08.908Z,12.40
2018-07-31T13:14:08.660Z,12.70
2018-07-31T13:15:08.651Z,13.00
2018-07-31T13:16:08.648Z,13.60
2018-07-31T13:17:08.636Z,13.60
2018-07-31T13:18:08.692Z,13.50
2018-07-31T13:19:08.625Z,14.20
2018-07-31T13:20:08.620Z,14.90
2018-07-31T13:21:08.613Z,14.90
2018-07-31T13:22:08.605Z,16.10
2018-07-31T13:23:08.668Z,16.40
2018-07-31T13:24:08.591Z,16.30
2018-07-31T13:25:08.585Z,17.30
2018-07-31T13:26:08.582Z,17.80
2018-07-31T13:27:08.572Z,17.30
2018-07-31T13:28:08.637Z,17.20
2018-07-31T13:29:08.562Z,18.10
2018-07-31T13:30:08.553Z,17.90
2018-07-31T13:31:08.559Z,17.70
2018-07-31T13:32:08.543Z,17.60
2018-07-31T13:33:08.613Z,17.70
2018-07-31T13:34:09.313Z,17.00
2018-07-31T13:35:08.520Z,17.40
2018-07-31T13:36:08.530Z,16.80
2018-07-31T13:37:08.506Z,16.60
2018-07-31T13:38:08.566Z,17.00
2018-07-31T13:39:08.489Z,16.20